createdAt,value
2023-03-04T15:35:39.993Z,2.08
2023-03-04T15:38:07.741Z,2.00
2023-03-04T15:40:39.653Z,2.38
2023-03-04T15:43:09.893Z,2.30
2023-03-04T15:45:38.297Z,2.10
2023-03-04T15:48:07.969Z,2.17
2023-03-04T15:50:43.648Z,2.13
2023-03-04T15:53:29.478Z,2.00
2023-03-04T15:55:56.562Z,2.20
2023-03-04T15:58:23.541Z,2.20
2023-03-04T16:00:51.352Z,2.20
2023-03-04T16:03:19.466Z,2.33
2023-03-04T16:05:48.013Z,2.30
2023-03-04T16:08:16.516Z,2.20
2023-03-04T16:10:44.349Z,2.30
2023-03-04T16:13:15.360Z,2.00
2023-03-04T16:15:43.197Z,2.10
2023-03-04T16:18:11.062Z,2.05
2023-03-04T16:20:38.570Z,2.03
2023-03-04T16:23:05.752Z,2.40
2023-03-04T16:25:32.795Z,2.10
2023-03-04T16:28:02.605Z,1.98
2023-03-04T16:30:29.806Z,2.00
2023-03-04T16:32:57.036Z,2.22
2023-03-04T16:35:25.277Z,2.15
2023-03-04T16:37:52.537Z,2.10
2023-03-04T16:40:25.845Z,1.75
2023-03-04T16:42:52.913Z,2.10
2023-03-04T16:45:22.118Z,1.90
2023-03-04T16:47:49.302Z,2.15
2023-03-04T16:50:18.012Z,1.95
2023-03-04T16:52:45.758Z,2.10
2023-03-04T16:55:17.273Z,2.00
2023-03-04T16:57:44.429Z,2.10
2023-03-04T17:00:12.115Z,2.20
2023-03-04T17:02:39.423Z,2.38
2023-03-04T17:05:09.086Z,2.03
2023-03-04T17:07:37.085Z,2.00
2023-03-04T17:10:04.197Z,2.03
2023-03-04T17:12:31.600Z,2.08
2023-03-04T17:14:58.635Z,1.83
2023-03-04T17:17:25.612Z,2.00
2023-03-04T17:19:54.048Z,2.30
2023-03-04T17:22:21.096Z,2.00
2023-03-04T17:24:48.128Z,1.67
2023-03-04T17:27:15.206Z,1.70
2023-03-04T17:29:42.242Z,1.23
2023-03-04T17:32:09.361Z,1.10
2023-03-04T17:34:36.384Z,1.30
2023-03-04T17:37:03.422Z,1.30
2023-03-04T17:39:30.411Z,1.60
2023-03-04T17:41:57.485Z,0.95
2023-03-04T17:44:24.549Z,1.30
2023-03-04T17:46:51.649Z,1.13
2023-03-04T17:49:18.926Z,1.20
2023-03-04T17:51:46.017Z,1.30
2023-03-04T17:54:13.620Z,1.40
2023-03-04T17:56:43.254Z,1.10
2023-03-04T17:59:13.161Z,1.23
2023-03-04T18:01:40.509Z,1.20
2023-03-04T18:04:09.122Z,1.40
2023-03-04T18:06:37.298Z,1.40
2023-03-04T18:09:04.626Z,1.20
2023-03-04T18:11:31.805Z,1.30
2023-03-04T18:13:58.878Z,1.20
2023-03-04T18:16:28.681Z,1.20
2023-03-04T18:18:57.883Z,1.30
2023-03-04T18:21:25.493Z,1.40
2023-03-04T18:23:52.927Z,1.23
2023-03-04T18:26:23.278Z,1.20
2023-03-04T18:28:50.763Z,1.30
2023-03-04T18:31:21.473Z,1.30
2023-03-04T18:33:48.965Z,1.20
2023-03-04T18:36:16.319Z,1.35
2023-03-04T18:38:43.856Z,1.40
2023-03-04T18:41:12.786Z,1.30
2023-03-04T18:43:39.875Z,1.20
2023-03-04T18:46:11.695Z,1.33
2023-03-04T18:48:41.148Z,1.33
2023-03-04T18:51:08.135Z,1.30
2023-03-04T18:53:35.109Z,1.27
2023-03-04T18:56:06.483Z,1.50
2023-03-04T18:58:34.630Z,1.30
2023-03-04T19:01:02.673Z,1.20
2023-03-04T19:03:30.217Z,1.30
2023-03-04T19:05:57.329Z,1.30
2023-03-04T19:08:25.960Z,1.40
2023-03-04T19:10:52.971Z,1.25
2023-03-04T19:13:22.492Z,1.20
2023-03-04T19:15:52.925Z,1.20
2023-03-04T19:18:19.971Z,1.40
2023-03-04T19:20:47.005Z,1.20
2023-03-04T19:23:15.386Z,1.40
2023-03-04T19:25:43.526Z,1.20
2023-03-04T19:28:11.055Z,1.42
2023-03-04T19:30:38.835Z,1.23
2023-03-04T19:33:05.860Z,1.30
2023-03-04T19:35:33.270Z,1.38
2023-03-04T19:38:01.109Z,1.17
2023-03-04T19:40:28.462Z,1.30
2023-03-04T19:42:56.664Z,1.20
2023-03-04T19:45:25.266Z,1.20
2023-03-04T19:47:52.599Z,1.20
2023-03-04T19:50:19.793Z,1.30
2023-03-04T19:52:46.981Z,1.20
2023-03-04T19:55:13.986Z,1.35
2023-03-04T19:57:43.476Z,1.30
2023-03-04T20:00:11.466Z,1.30
2023-03-04T20:02:38.952Z,1.30
2023-03-04T20:05:06.486Z,1.40
2023-03-04T20:07:33.493Z,1.30
2023-03-04T20:10:00.506Z,1.13
2023-03-04T20:12:27.511Z,1.40
2023-03-04T20:14:54.632Z,1.30
2023-03-04T20:17:21.640Z,1.45
2023-03-04T20:19:48.674Z,1.30
2023-03-04T20:22:15.673Z,1.30
2023-03-04T20:24:42.657Z,1.23
2023-03-04T20:27:11.870Z,1.23
2023-03-04T20:29:39.128Z,1.30
2023-03-04T20:32:06.235Z,1.10
2023-03-04T20:34:34.020Z,1.25
2023-03-04T20:37:01.055Z,1.30
2023-03-04T20:39:29.910Z,1.30
2023-03-04T20:41:58.317Z,1.27
2023-03-04T20:44:25.683Z,1.30
2023-03-04T20:46:52.788Z,1.20
2023-03-04T20:49:23.318Z,1.48
2023-03-04T20:51:54.154Z,1.30
2023-03-04T20:54:21.518Z,1.50
2023-03-04T20:56:48.925Z,1.20
2023-03-04T20:59:16.018Z,1.40
2023-03-04T21:01:44.126Z,1.30
2023-03-04T21:04:11.623Z,1.50
2023-03-04T21:06:39.467Z,1.30
2023-03-04T21:09:12.315Z,1.30
2023-03-04T21:11:42.665Z,1.30
2023-03-04T21:14:19.418Z,1.48
2023-03-04T21:16:46.887Z,1.20
2023-03-04T21:19:15.627Z,1.25
2023-03-04T21:21:42.713Z,1.23
2023-03-04T21:24:12.084Z,1.52
2023-03-04T21:26:39.687Z,1.20
2023-03-04T21:29:06.664Z,1.40
2023-03-04T21:31:37.814Z,1.40
2023-03-04T21:34:04.839Z,1.30
2023-03-04T21:36:31.838Z,1.38
2023-03-04T21:38:58.905Z,1.17
2023-03-04T21:41:25.912Z,1.30
2023-03-04T21:43:53.016Z,1.15
2023-03-04T21:46:20.108Z,1.30
2023-03-04T21:48:48.208Z,1.30
2023-03-04T21:51:16.080Z,1.43
2023-03-04T21:53:43.669Z,1.30
2023-03-04T21:56:11.591Z,1.33
2023-03-04T21:58:42.227Z,1.20
2023-03-04T22:01:13.507Z,1.30
2023-03-04T22:03:40.684Z,1.40
2023-03-04T22:06:08.864Z,1.50
2023-03-04T22:08:36.009Z,1.30
2023-03-04T22:11:04.265Z,1.20
2023-03-04T22:13:31.286Z,1.30
2023-03-04T22:15:58.964Z,1.20
2023-03-04T22:18:26.348Z,1.30
2023-03-04T22:20:59.466Z,1.27
2023-03-04T22:23:26.457Z,1.30
2023-03-04T22:25:53.588Z,1.30
2023-03-04T22:28:20.655Z,1.20
2023-03-04T22:30:47.656Z,1.30
2023-03-04T22:33:14.646Z,1.20
2023-03-04T22:35:41.999Z,1.15
2023-03-04T22:38:09.066Z,1.30
2023-03-04T22:40:36.152Z,1.35
2023-03-04T22:43:03.217Z,1.30
2023-03-04T22:45:32.613Z,1.30
2023-03-04T22:47:59.689Z,1.20
2023-03-04T22:50:26.697Z,1.33
2023-03-04T22:52:54.107Z,1.23
2023-03-04T22:55:21.882Z,1.30
2023-03-04T22:57:49.407Z,1.25
2023-03-04T23:00:22.688Z,1.27
2023-03-04T23:02:50.079Z,1.30
2023-03-04T23:05:18.613Z,1.10
2023-03-04T23:07:45.595Z,1.27
2023-03-04T23:10:14.566Z,1.30
2023-03-04T23:12:41.626Z,1.20
2023-03-04T23:15:09.108Z,1.37
2023-03-04T23:17:36.136Z,1.30
2023-03-04T23:20:03.890Z,1.27
2023-03-04T23:22:30.946Z,1.30
2023-03-04T23:24:57.929Z,1.35
2023-03-04T23:27:25.307Z,1.20
2023-03-04T23:29:52.823Z,1.30
2023-03-04T23:32:19.891Z,1.35
2023-03-04T23:34:52.858Z,1.40
2023-03-04T23:37:21.657Z,1.20
2023-03-04T23:39:48.964Z,1.40
2023-03-04T23:42:16.426Z,1.40
2023-03-04T23:44:43.642Z,1.35
2023-03-04T23:47:10.728Z,1.20
2023-03-04T23:49:37.801Z,1.30
2023-03-04T23:52:04.948Z,1.20
2023-03-04T23:54:32.352Z,1.27
2023-03-04T23:57:02.142Z,1.17
2023-03-04T23:59:29.169Z,1.37
